sensor_id;sensor_type;location;lat;lon;timestamp;temperature;humidity
18291;DHT22;9271;48.590;8.866;2023-06-04T00:00:26;16.70;70.60
18291;DHT22;9271;48.590;8.866;2023-06-04T00:02:53;16.60;71.40
18291;DHT22;9271;48.590;8.866;2023-06-04T00:05:20;16.50;72.60
18291;DHT22;9271;48.590;8.866;2023-06-04T00:07:50;16.40;73.30
18291;DHT22;9271;48.590;8.866;2023-06-04T00:10:18;16.40;73.90
18291;DHT22;9271;48.590;8.866;2023-06-04T00:12:45;16.30;74.30
18291;DHT22;9271;48.590;8.866;2023-06-04T00:15:13;16.30;74.60
18291;DHT22;9271;48.590;8.866;2023-06-04T00:17:40;16.30;74.60
18291;DHT22;9271;48.590;8.866;2023-06-04T00:20:07;16.20;74.60
18291;DHT22;9271;48.590;8.866;2023-06-04T00:22:35;16.20;75.30
18291;DHT22;9271;48.590;8.866;2023-06-04T00:25:01;16.20;75.40
18291;DHT22;9271;48.590;8.866;2023-06-04T00:27:30;16.10;75.80
18291;DHT22;9271;48.590;8.866;2023-06-04T00:29:56;16.20;75.80
18291;DHT22;9271;48.590;8.866;2023-06-04T00:32:23;16.10;76.00
18291;DHT22;9271;48.590;8.866;2023-06-04T00:34:54;16.20;75.40
18291;DHT22;9271;48.590;8.866;2023-06-04T00:37:23;16.30;74.80
18291;DHT22;9271;48.590;8.866;2023-06-04T00:39:50;16.30;76.10
18291;DHT22;9271;48.590;8.866;2023-06-04T00:42:17;16.10;76.80
18291;DHT22;9271;48.590;8.866;2023-06-04T00:44:45;16.10;76.90
18291;DHT22;9271;48.590;8.866;2023-06-04T00:47:13;16.00;77.90
18291;DHT22;9271;48.590;8.866;2023-06-04T00:49:41;15.90;78.00
18291;DHT22;9271;48.590;8.866;2023-06-04T00:52:08;16.00;77.70
18291;DHT22;9271;48.590;8.866;2023-06-04T00:54:35;15.90;77.80
18291;DHT22;9271;48.590;8.866;2023-06-04T00:57:04;15.90;77.80
18291;DHT22;9271;48.590;8.866;2023-06-04T00:59:32;15.80;78.70
18291;DHT22;9271;48.590;8.866;2023-06-04T01:02:03;15.80;78.80
18291;DHT22;9271;48.590;8.866;2023-06-04T01:04:36;15.80;78.90
18291;DHT22;9271;48.590;8.866;2023-06-04T01:07:05;15.70;79.40
18291;DHT22;9271;48.590;8.866;2023-06-04T01:09:38;15.70;79.30
18291;DHT22;9271;48.590;8.866;2023-06-04T01:12:06;15.70;79.60
18291;DHT22;9271;48.590;8.866;2023-06-04T01:14:33;15.70;79.80
18291;DHT22;9271;48.590;8.866;2023-06-04T01:17:06;15.70;79.80
18291;DHT22;9271;48.590;8.866;2023-06-04T01:19:57;15.70;80.40
18291;DHT22;9271;48.590;8.866;2023-06-04T01:22:37;15.60;80.40
18291;DHT22;9271;48.590;8.866;2023-06-04T01:25:09;15.40;81.60
18291;DHT22;9271;48.590;8.866;2023-06-04T01:27:37;15.40;81.20
18291;DHT22;9271;48.590;8.866;2023-06-04T01:30:08;15.40;81.30
18291;DHT22;9271;48.590;8.866;2023-06-04T01:32:37;15.50;81.50
18291;DHT22;9271;48.590;8.866;2023-06-04T01:35:07;15.40;81.90
18291;DHT22;9271;48.590;8.866;2023-06-04T01:37:35;15.40;82.20
18291;DHT22;9271;48.590;8.866;2023-06-04T01:40:02;15.30;82.40
18291;DHT22;9271;48.590;8.866;2023-06-04T01:42:29;15.40;82.20
18291;DHT22;9271;48.590;8.866;2023-06-04T01:44:56;15.30;82.70
18291;DHT22;9271;48.590;8.866;2023-06-04T01:47:22;15.30;82.80
18291;DHT22;9271;48.590;8.866;2023-06-04T01:49:50;15.30;82.70
18291;DHT22;9271;48.590;8.866;2023-06-04T01:52:17;15.30;82.60
18291;DHT22;9271;48.590;8.866;2023-06-04T01:54:46;15.40;82.80
18291;DHT22;9271;48.590;8.866;2023-06-04T01:57:14;15.30;83.10
18291;DHT22;9271;48.590;8.866;2023-06-04T01:59:40;15.20;83.20
18291;DHT22;9271;48.590;8.866;2023-06-04T02:02:07;15.30;83.30
18291;DHT22;9271;48.590;8.866;2023-06-04T02:04:34;15.30;82.60
18291;DHT22;9271;48.590;8.866;2023-06-04T02:07:03;15.30;83.40
18291;DHT22;9271;48.590;8.866;2023-06-04T02:09:30;15.10;83.70
18291;DHT22;9271;48.590;8.866;2023-06-04T02:11:56;15.10;84.10
18291;DHT22;9271;48.590;8.866;2023-06-04T02:14:23;15.10;84.50
18291;DHT22;9271;48.590;8.866;2023-06-04T02:16:50;15.10;84.40
18291;DHT22;9271;48.590;8.866;2023-06-04T02:19:16;15.10;84.70
18291;DHT22;9271;48.590;8.866;2023-06-04T02:21:44;15.00;85.00
18291;DHT22;9271;48.590;8.866;2023-06-04T02:24:12;15.00;85.30
18291;DHT22;9271;48.590;8.866;2023-06-04T02:26:39;14.90;85.90
18291;DHT22;9271;48.590;8.866;2023-06-04T02:29:05;15.00;85.60
18291;DHT22;9271;48.590;8.866;2023-06-04T02:31:32;15.10;84.70
18291;DHT22;9271;48.590;8.866;2023-06-04T02:33:59;15.10;84.60
18291;DHT22;9271;48.590;8.866;2023-06-04T02:36:25;15.10;85.30
18291;DHT22;9271;48.590;8.866;2023-06-04T02:38:52;15.00;85.30
18291;DHT22;9271;48.590;8.866;2023-06-04T02:41:20;14.90;86.50
18291;DHT22;9271;48.590;8.866;2023-06-04T02:43:47;15.10;84.70
18291;DHT22;9271;48.590;8.866;2023-06-04T02:46:13;15.00;85.00
18291;DHT22;9271;48.590;8.866;2023-06-04T02:48:40;15.00;85.10
18291;DHT22;9271;48.590;8.866;2023-06-04T02:51:07;14.90;85.10
18291;DHT22;9271;48.590;8.866;2023-06-04T02:53:35;14.90;85.70
18291;DHT22;9271;48.590;8.866;2023-06-04T02:56:02;14.90;85.70
18291;DHT22;9271;48.590;8.866;2023-06-04T02:58:30;14.90;85.80
18291;DHT22;9271;48.590;8.866;2023-06-04T03:00:56;15.00;85.30
18291;DHT22;9271;48.590;8.866;2023-06-04T03:03:23;14.90;85.60
18291;DHT22;9271;48.590;8.866;2023-06-04T03:05:50;14.80;86.00
18291;DHT22;9271;48.590;8.866;2023-06-04T03:08:18;14.70;86.80
18291;DHT22;9271;48.590;8.866;2023-06-04T03:10:44;14.70;86.80
18291;DHT22;9271;48.590;8.866;2023-06-04T03:13:11;14.70;86.80
18291;DHT22;9271;48.590;8.866;2023-06-04T03:15:39;14.70;87.10
18291;DHT22;9271;48.590;8.866;2023-06-04T03:18:05;14.60;88.10
18291;DHT22;9271;48.590;8.866;2023-06-04T03:20:32;14.50;87.80
18291;DHT22;9271;48.590;8.866;2023-06-04T03:23:03;14.50;87.70
18291;DHT22;9271;48.590;8.866;2023-06-04T03:25:30;14.50;87.40
18291;DHT22;9271;48.590;8.866;2023-06-04T03:27:56;14.40;87.90
18291;DHT22;9271;48.590;8.866;2023-06-04T03:30:23;14.50;87.80
18291;DHT22;9271;48.590;8.866;2023-06-04T03:32:51;14.40;87.80
18291;DHT22;9271;48.590;8.866;2023-06-04T03:35:18;14.40;87.90
18291;DHT22;9271;48.590;8.866;2023-06-04T03:37:44;14.30;88.20
18291;DHT22;9271;48.590;8.866;2023-06-04T03:40:12;14.40;88.20
18291;DHT22;9271;48.590;8.866;2023-06-04T03:42:39;14.40;87.80
18291;DHT22;9271;48.590;8.866;2023-06-04T03:45:06;14.40;88.10
18291;DHT22;9271;48.590;8.866;2023-06-04T03:47:33;14.50;87.60
18291;DHT22;9271;48.590;8.866;2023-06-04T03:50:01;14.70;87.20
18291;DHT22;9271;48.590;8.866;2023-06-04T03:52:28;14.60;87.40
18291;DHT22;9271;48.590;8.866;2023-06-04T03:54:55;14.50;88.00
18291;DHT22;9271;48.590;8.866;2023-06-04T03:57:21;14.60;87.90
18291;DHT22;9271;48.590;8.866;2023-06-04T03:59:48;14.60;87.60
18291;DHT22;9271;48.590;8.866;2023-06-04T04:02:15;14.70;87.50
18291;DHT22;9271;48.590;8.866;2023-06-04T04:04:43;14.70;87.30
18291;DHT22;9271;48.590;8.866;2023-06-04T04:07:11;14.70;87.50
18291;DHT22;9271;48.590;8.866;2023-06-04T04:09:38;14.80;87.10
18291;DHT22;9271;48.590;8.866;2023-06-04T04:12:05;14.90;87.00
18291;DHT22;9271;48.590;8.866;2023-06-04T04:14:32;14.80;87.10
18291;DHT22;9271;48.590;8.866;2023-06-04T04:16:59;14.90;86.90
18291;DHT22;9271;48.590;8.866;2023-06-04T04:19:25;14.90;85.80
18291;DHT22;9271;48.590;8.866;2023-06-04T04:21:54;15.00;86.00
18291;DHT22;9271;48.590;8.866;2023-06-04T04:24:25;15.10;85.00
18291;DHT22;9271;48.590;8.866;2023-06-04T04:26:52;15.20;85.80
18291;DHT22;9271;48.590;8.866;2023-06-04T04:29:19;15.10;85.40
18291;DHT22;9271;48.590;8.866;2023-06-04T04:31:48;15.30;85.00
18291;DHT22;9271;48.590;8.866;2023-06-04T04:34:15;15.30;85.20
18291;DHT22;9271;48.590;8.866;2023-06-04T04:36:42;15.40;84.70
18291;DHT22;9271;48.590;8.866;2023-06-04T04:39:09;15.40;83.90
18291;DHT22;9271;48.590;8.866;2023-06-04T04:41:38;15.40;83.10
18291;DHT22;9271;48.590;8.866;2023-06-04T04:44:05;15.60;83.30
18291;DHT22;9271;48.590;8.866;2023-06-04T04:46:32;15.80;82.90
18291;DHT22;9271;48.590;8.866;2023-06-04T04:48:58;15.90;82.10
18291;DHT22;9271;48.590;8.866;2023-06-04T04:51:25;16.00;82.10
18291;DHT22;9271;48.590;8.866;2023-06-04T04:53:52;16.20;81.20
18291;DHT22;9271;48.590;8.866;2023-06-04T04:56:19;16.40;80.80
18291;DHT22;9271;48.590;8.866;2023-06-04T04:58:49;16.40;80.60
18291;DHT22;9271;48.590;8.866;2023-06-04T05:01:16;16.60;79.40
18291;DHT22;9271;48.590;8.866;2023-06-04T05:03:42;16.70;78.70
18291;DHT22;9271;48.590;8.866;2023-06-04T05:06:09;16.90;77.60
18291;DHT22;9271;48.590;8.866;2023-06-04T05:08:36;17.10;77.50
18291;DHT22;9271;48.590;8.866;2023-06-04T05:11:03;17.20;77.50
18291;DHT22;9271;48.590;8.866;2023-06-04T05:13:30;17.50;75.80
18291;DHT22;9271;48.590;8.866;2023-06-04T05:15:58;17.60;76.00
18291;DHT22;9271;48.590;8.866;2023-06-04T05:18:25;17.70;75.30
18291;DHT22;9271;48.590;8.866;2023-06-04T05:20:54;17.80;75.70
18291;DHT22;9271;48.590;8.866;2023-06-04T05:23:21;17.80;73.70
18291;DHT22;9271;48.590;8.866;2023-06-04T05:25:47;18.00;73.00
18291;DHT22;9271;48.590;8.866;2023-06-04T05:28:14;18.00;72.90
18291;DHT22;9271;48.590;8.866;2023-06-04T05:30:41;18.10;72.90
18291;DHT22;9271;48.590;8.866;2023-06-04T05:33:10;18.20;71.90
18291;DHT22;9271;48.590;8.866;2023-06-04T05:35:43;18.20;72.00
18291;DHT22;9271;48.590;8.866;2023-06-04T05:38:09;18.40;71.10
18291;DHT22;9271;48.590;8.866;2023-06-04T05:40:42;18.50;70.50
18291;DHT22;9271;48.590;8.866;2023-06-04T05:43:09;18.50;70.50
18291;DHT22;9271;48.590;8.866;2023-06-04T05:45:35;18.50;70.40
18291;DHT22;9271;48.590;8.866;2023-06-04T05:48:02;18.70;68.40
18291;DHT22;9271;48.590;8.866;2023-06-04T05:50:31;18.80;68.50
18291;DHT22;9271;48.590;8.866;2023-06-04T05:52:57;18.90;68.10
18291;DHT22;9271;48.590;8.866;2023-06-04T05:55:24;18.90;67.40
18291;DHT22;9271;48.590;8.866;2023-06-04T05:57:51;19.00;66.50
18291;DHT22;9271;48.590;8.866;2023-06-04T06:00:18;19.20;67.10
18291;DHT22;9271;48.590;8.866;2023-06-04T06:02:44;19.30;66.40
18291;DHT22;9271;48.590;8.866;2023-06-04T06:05:14;19.50;65.40
18291;DHT22;9271;48.590;8.866;2023-06-04T06:07:42;19.60;65.40
18291;DHT22;9271;48.590;8.866;2023-06-04T06:10:12;19.70;64.20
18291;DHT22;9271;48.590;8.866;2023-06-04T06:12:39;19.90;62.70
18291;DHT22;9271;48.590;8.866;2023-06-04T06:15:06;19.80;63.60
18291;DHT22;9271;48.590;8.866;2023-06-04T06:17:33;19.90;62.30
18291;DHT22;9271;48.590;8.866;2023-06-04T06:20:00;19.80;62.20
18291;DHT22;9271;48.590;8.866;2023-06-04T06:22:31;20.10;61.70
18291;DHT22;9271;48.590;8.866;2023-06-04T06:24:59;20.30;60.80
18291;DHT22;9271;48.590;8.866;2023-06-04T06:27:25;20.50;60.60
18291;DHT22;9271;48.590;8.866;2023-06-04T06:29:52;20.60;59.70
18291;DHT22;9271;48.590;8.866;2023-06-04T06:32:19;20.80;59.90
18291;DHT22;9271;48.590;8.866;2023-06-04T06:34:45;20.90;59.00
18291;DHT22;9271;48.590;8.866;2023-06-04T06:37:12;21.20;58.10
18291;DHT22;9271;48.590;8.866;2023-06-04T06:39:39;21.40;58.80
18291;DHT22;9271;48.590;8.866;2023-06-04T06:42:07;21.60;58.40
18291;DHT22;9271;48.590;8.866;2023-06-04T06:44:34;21.70;58.30
18291;DHT22;9271;48.590;8.866;2023-06-04T06:47:01;22.10;57.00
18291;DHT22;9271;48.590;8.866;2023-06-04T06:49:27;22.30;56.20
18291;DHT22;9271;48.590;8.866;2023-06-04T06:51:54;22.50;56.50
18291;DHT22;9271;48.590;8.866;2023-06-04T06:54:20;22.40;56.20
18291;DHT22;9271;48.590;8.866;2023-06-04T06:56:47;22.40;56.20
18291;DHT22;9271;48.590;8.866;2023-06-04T06:59:16;22.60;56.30
18291;DHT22;9271;48.590;8.866;2023-06-04T07:01:42;22.70;56.30
18291;DHT22;9271;48.590;8.866;2023-06-04T07:04:09;22.60;55.60
18291;DHT22;9271;48.590;8.866;2023-06-04T07:06:36;22.50;55.80
18291;DHT22;9271;48.590;8.866;2023-06-04T07:09:02;22.50;56.00
18291;DHT22;9271;48.590;8.866;2023-06-04T07:11:29;22.40;55.90
18291;DHT22;9271;48.590;8.866;2023-06-04T07:13:56;22.60;55.10
18291;DHT22;9271;48.590;8.866;2023-06-04T07:16:24;23.00;56.00
18291;DHT22;9271;48.590;8.866;2023-06-04T07:18:50;22.90;56.30
18291;DHT22;9271;48.590;8.866;2023-06-04T07:21:17;22.70;54.70
18291;DHT22;9271;48.590;8.866;2023-06-04T07:23:45;23.20;55.20
18291;DHT22;9271;48.590;8.866;2023-06-04T07:26:15;23.50;54.60
18291;DHT22;9271;48.590;8.866;2023-06-04T07:28:41;24.00;54.70
18291;DHT22;9271;48.590;8.866;2023-06-04T07:31:08;24.30;53.80
18291;DHT22;9271;48.590;8.866;2023-06-04T07:33:37;24.50;52.30
18291;DHT22;9271;48.590;8.866;2023-06-04T07:36:08;25.00;51.60
18291;DHT22;9271;48.590;8.866;2023-06-04T07:38:35;25.70;50.20
18291;DHT22;9271;48.590;8.866;2023-06-04T07:41:02;26.70;48.30
18291;DHT22;9271;48.590;8.866;2023-06-04T07:43:28;27.60;45.80
18291;DHT22;9271;48.590;8.866;2023-06-04T07:45:58;28.40;44.40
18291;DHT22;9271;48.590;8.866;2023-06-04T07:48:25;29.10;42.20
18291;DHT22;9271;48.590;8.866;2023-06-04T07:50:57;29.80;41.50
18291;DHT22;9271;48.590;8.866;2023-06-04T07:53:23;30.70;40.30
18291;DHT22;9271;48.590;8.866;2023-06-04T07:55:51;31.60;38.30
18291;DHT22;9271;48.590;8.866;2023-06-04T07:58:17;32.50;36.80
18291;DHT22;9271;48.590;8.866;2023-06-04T08:00:45;33.10;33.70
18291;DHT22;9271;48.590;8.866;2023-06-04T08:03:12;33.30;33.60
18291;DHT22;9271;48.590;8.866;2023-06-04T08:05:40;32.90;33.90
18291;DHT22;9271;48.590;8.866;2023-06-04T08:08:08;33.60;32.10
18291;DHT22;9271;48.590;8.866;2023-06-04T08:10:35;34.20;31.10
18291;DHT22;9271;48.590;8.866;2023-06-04T08:13:02;34.10;31.60
18291;DHT22;9271;48.590;8.866;2023-06-04T08:15:28;34.30;31.70
18291;DHT22;9271;48.590;8.866;2023-06-04T08:17:55;34.80;31.80
18291;DHT22;9271;48.590;8.866;2023-06-04T08:20:21;35.50;30.00
18291;DHT22;9271;48.590;8.866;2023-06-04T08:22:48;35.30;29.60
18291;DHT22;9271;48.590;8.866;2023-06-04T08:25:16;34.10;31.60
18291;DHT22;9271;48.590;8.866;2023-06-04T08:27:43;33.80;30.90
18291;DHT22;9271;48.590;8.866;2023-06-04T08:30:11;34.50;30.00
18291;DHT22;9271;48.590;8.866;2023-06-04T08:32:37;35.40;30.70
18291;DHT22;9271;48.590;8.866;2023-06-04T08:35:06;36.00;29.20
18291;DHT22;9271;48.590;8.866;2023-06-04T08:37:33;37.00;28.40
18291;DHT22;9271;48.590;8.866;2023-06-04T08:40:00;36.50;27.70
18291;DHT22;9271;48.590;8.866;2023-06-04T08:42:30;36.00;27.70
18291;DHT22;9271;48.590;8.866;2023-06-04T08:44:57;36.50;28.40
18291;DHT22;9271;48.590;8.866;2023-06-04T08:47:25;36.00;27.70
18291;DHT22;9271;48.590;8.866;2023-06-04T08:49:52;36.50;28.50
18291;DHT22;9271;48.590;8.866;2023-06-04T08:52:21;36.40;27.10
18291;DHT22;9271;48.590;8.866;2023-06-04T08:54:49;36.20;27.10
18291;DHT22;9271;48.590;8.866;2023-06-04T08:57:17;36.10;28.10
18291;DHT22;9271;48.590;8.866;2023-06-04T08:59:46;35.70;28.10
18291;DHT22;9271;48.590;8.866;2023-06-04T09:02:14;36.60;26.90
18291;DHT22;9271;48.590;8.866;2023-06-04T09:04:42;37.00;25.90
18291;DHT22;9271;48.590;8.866;2023-06-04T09:07:11;38.20;25.80
18291;DHT22;9271;48.590;8.866;2023-06-04T09:09:40;39.10;24.60
18291;DHT22;9271;48.590;8.866;2023-06-04T09:12:10;38.90;24.60
18291;DHT22;9271;48.590;8.866;2023-06-04T09:14:37;39.20;25.00
18291;DHT22;9271;48.590;8.866;2023-06-04T09:17:05;39.80;24.00
18291;DHT22;9271;48.590;8.866;2023-06-04T09:19:31;40.90;23.30
18291;DHT22;9271;48.590;8.866;2023-06-04T09:21:59;40.80;23.30
18291;DHT22;9271;48.590;8.866;2023-06-04T09:24:39;41.10;23.30
18291;DHT22;9271;48.590;8.866;2023-06-04T09:27:10;41.20;22.60
18291;DHT22;9271;48.590;8.866;2023-06-04T09:29:37;40.30;23.10
18291;DHT22;9271;48.590;8.866;2023-06-04T09:32:05;39.80;23.00
18291;DHT22;9271;48.590;8.866;2023-06-04T09:34:32;40.40;22.10
18291;DHT22;9271;48.590;8.866;2023-06-04T09:36:59;40.70;23.10
18291;DHT22;9271;48.590;8.866;2023-06-04T09:39:25;41.10;22.20
18291;DHT22;9271;48.590;8.866;2023-06-04T09:41:59;40.10;22.70
18291;DHT22;9271;48.590;8.866;2023-06-04T09:44:27;40.30;22.80
18291;DHT22;9271;48.590;8.866;2023-06-04T09:46:54;40.00;22.70
18291;DHT22;9271;48.590;8.866;2023-06-04T09:49:22;40.40;22.80
18291;DHT22;9271;48.590;8.866;2023-06-04T09:51:49;40.70;22.30
18291;DHT22;9271;48.590;8.866;2023-06-04T09:54:16;41.20;22.30
18291;DHT22;9271;48.590;8.866;2023-06-04T09:56:43;40.70;22.30
18291;DHT22;9271;48.590;8.866;2023-06-04T09:59:10;40.70;22.30
18291;DHT22;9271;48.590;8.866;2023-06-04T10:01:40;40.40;21.90
18291;DHT22;9271;48.590;8.866;2023-06-04T10:04:08;38.10;24.60
18291;DHT22;9271;48.590;8.866;2023-06-04T10:06:39;38.40;24.20
18291;DHT22;9271;48.590;8.866;2023-06-04T10:09:07;39.70;23.40
18291;DHT22;9271;48.590;8.866;2023-06-04T10:11:35;40.70;22.30
18291;DHT22;9271;48.590;8.866;2023-06-04T10:14:09;41.20;21.80
18291;DHT22;9271;48.590;8.866;2023-06-04T10:16:37;41.60;22.70
18291;DHT22;9271;48.590;8.866;2023-06-04T10:19:07;41.90;21.60
18291;DHT22;9271;48.590;8.866;2023-06-04T10:21:34;41.80;21.30
18291;DHT22;9271;48.590;8.866;2023-06-04T10:24:03;41.60;22.00
18291;DHT22;9271;48.590;8.866;2023-06-04T10:26:32;41.80;21.50
18291;DHT22;9271;48.590;8.866;2023-06-04T10:29:01;40.20;22.70
18291;DHT22;9271;48.590;8.866;2023-06-04T10:31:28;40.00;23.00
18291;DHT22;9271;48.590;8.866;2023-06-04T10:33:55;41.20;21.80
18291;DHT22;9271;48.590;8.866;2023-06-04T10:36:24;40.00;22.90
18291;DHT22;9271;48.590;8.866;2023-06-04T10:38:52;39.30;23.00
18291;DHT22;9271;48.590;8.866;2023-06-04T10:41:21;40.70;23.50
18291;DHT22;9271;48.590;8.866;2023-06-04T10:43:49;41.00;21.90
18291;DHT22;9271;48.590;8.866;2023-06-04T10:46:17;41.80;22.00
18291;DHT22;9271;48.590;8.866;2023-06-04T10:48:48;41.90;21.80
18291;DHT22;9271;48.590;8.866;2023-06-04T10:51:16;42.80;22.00
18291;DHT22;9271;48.590;8.866;2023-06-04T10:53:43;43.70;21.30
18291;DHT22;9271;48.590;8.866;2023-06-04T10:56:09;44.10;19.50
18291;DHT22;9271;48.590;8.866;2023-06-04T10:58:38;43.30;20.30
18291;DHT22;9271;48.590;8.866;2023-06-04T11:01:04;43.00;20.80
18291;DHT22;9271;48.590;8.866;2023-06-04T11:03:37;42.10;20.90
18291;DHT22;9271;48.590;8.866;2023-06-04T11:06:14;42.80;21.30
18291;DHT22;9271;48.590;8.866;2023-06-04T11:08:42;42.40;20.70
18291;DHT22;9271;48.590;8.866;2023-06-04T11:11:11;43.10;21.10
18291;DHT22;9271;48.590;8.866;2023-06-04T11:13:40;42.70;21.30
18291;DHT22;9271;48.590;8.866;2023-06-04T11:16:16;43.50;20.50
18291;DHT22;9271;48.590;8.866;2023-06-04T11:18:43;44.00;21.30
18291;DHT22;9271;48.590;8.866;2023-06-04T11:21:11;43.30;20.20
18291;DHT22;9271;48.590;8.866;2023-06-04T11:23:40;44.50;20.60
18291;DHT22;9271;48.590;8.866;2023-06-04T11:26:06;43.90;20.50
18291;DHT22;9271;48.590;8.866;2023-06-04T11:28:33;43.60;19.90
18291;DHT22;9271;48.590;8.866;2023-06-04T11:31:02;44.30;19.10
18291;DHT22;9271;48.590;8.866;2023-06-04T11:33:41;43.40;19.70
18291;DHT22;9271;48.590;8.866;2023-06-04T11:36:07;41.90;21.20
18291;DHT22;9271;48.590;8.866;2023-06-04T11:38:34;40.90;21.50
18291;DHT22;9271;48.590;8.866;2023-06-04T11:41:02;40.60;21.30
18291;DHT22;9271;48.590;8.866;2023-06-04T11:43:32;40.10;21.30
18291;DHT22;9271;48.590;8.866;2023-06-04T11:45:59;40.90;21.90
18291;DHT22;9271;48.590;8.866;2023-06-04T11:48:27;42.40;20.70
18291;DHT22;9271;48.590;8.866;2023-06-04T11:50:55;42.50;21.00
18291;DHT22;9271;48.590;8.866;2023-06-04T11:53:22;41.00;21.30
18291;DHT22;9271;48.590;8.866;2023-06-04T11:55:49;39.20;22.90
18291;DHT22;9271;48.590;8.866;2023-06-04T11:58:16;39.60;23.10
18291;DHT22;9271;48.590;8.866;2023-06-04T12:00:43;39.70;22.30
18291;DHT22;9271;48.590;8.866;2023-06-04T12:03:09;39.00;23.00
18291;DHT22;9271;48.590;8.866;2023-06-04T12:05:37;36.80;23.50
18291;DHT22;9271;48.590;8.866;2023-06-04T12:08:05;35.50;24.60
18291;DHT22;9271;48.590;8.866;2023-06-04T12:10:37;34.90;25.70
18291;DHT22;9271;48.590;8.866;2023-06-04T12:13:04;35.80;25.60
18291;DHT22;9271;48.590;8.866;2023-06-04T12:15:31;37.50;25.10
18291;DHT22;9271;48.590;8.866;2023-06-04T12:17:58;37.80;23.60
18291;DHT22;9271;48.590;8.866;2023-06-04T12:20:33;39.40;24.30
18291;DHT22;9271;48.590;8.866;2023-06-04T12:23:01;40.10;22.50
18291;DHT22;9271;48.590;8.866;2023-06-04T12:25:28;41.10;21.60
18291;DHT22;9271;48.590;8.866;2023-06-04T12:27:55;40.90;21.10
18291;DHT22;9271;48.590;8.866;2023-06-04T12:30:22;40.90;21.90
18291;DHT22;9271;48.590;8.866;2023-06-04T12:32:49;41.30;20.70
18291;DHT22;9271;48.590;8.866;2023-06-04T12:35:17;41.70;21.10
18291;DHT22;9271;48.590;8.866;2023-06-04T12:37:43;42.30;20.10
18291;DHT22;9271;48.590;8.866;2023-06-04T12:40:11;42.90;20.40
18291;DHT22;9271;48.590;8.866;2023-06-04T12:42:39;42.80;19.40
18291;DHT22;9271;48.590;8.866;2023-06-04T12:45:06;42.30;19.50
18291;DHT22;9271;48.590;8.866;2023-06-04T12:47:35;42.30;20.90
18291;DHT22;9271;48.590;8.866;2023-06-04T12:50:02;41.20;20.60
18291;DHT22;9271;48.590;8.866;2023-06-04T12:52:28;39.20;21.60
18291;DHT22;9271;48.590;8.866;2023-06-04T12:54:55;37.70;23.40
18291;DHT22;9271;48.590;8.866;2023-06-04T12:57:23;38.50;23.10
18291;DHT22;9271;48.590;8.866;2023-06-04T12:59:50;39.60;21.70
18291;DHT22;9271;48.590;8.866;2023-06-04T13:02:17;39.80;21.40
18291;DHT22;9271;48.590;8.866;2023-06-04T13:04:43;40.70;21.70
18291;DHT22;9271;48.590;8.866;2023-06-04T13:07:11;40.30;21.00
18291;DHT22;9271;48.590;8.866;2023-06-04T13:09:38;40.50;22.70
18291;DHT22;9271;48.590;8.866;2023-06-04T13:12:05;41.00;21.00
18291;DHT22;9271;48.590;8.866;2023-06-04T13:14:36;40.80;21.50
18291;DHT22;9271;48.590;8.866;2023-06-04T13:17:02;41.10;21.30
18291;DHT22;9271;48.590;8.866;2023-06-04T13:19:29;41.70;21.10
18291;DHT22;9271;48.590;8.866;2023-06-04T13:21:56;42.80;20.10
18291;DHT22;9271;48.590;8.866;2023-06-04T13:24:23;43.20;19.50
18291;DHT22;9271;48.590;8.866;2023-06-04T13:26:51;43.40;19.20
18291;DHT22;9271;48.590;8.866;2023-06-04T13:29:18;42.80;19.50
18291;DHT22;9271;48.590;8.866;2023-06-04T13:31:49;42.20;20.10
18291;DHT22;9271;48.590;8.866;2023-06-04T13:34:18;41.30;19.70
18291;DHT22;9271;48.590;8.866;2023-06-04T13:36:45;41.00;20.20
18291;DHT22;9271;48.590;8.866;2023-06-04T13:39:12;41.10;20.30
18291;DHT22;9271;48.590;8.866;2023-06-04T13:41:39;41.00;20.40
18291;DHT22;9271;48.590;8.866;2023-06-04T13:44:06;41.10;20.20
18291;DHT22;9271;48.590;8.866;2023-06-04T13:46:33;41.00;20.00
18291;DHT22;9271;48.590;8.866;2023-06-04T13:49:04;41.10;19.30
18291;DHT22;9271;48.590;8.866;2023-06-04T13:51:31;40.00;21.00
18291;DHT22;9271;48.590;8.866;2023-06-04T13:53:59;39.60;20.90
18291;DHT22;9271;48.590;8.866;2023-06-04T13:56:26;39.50;20.80
18291;DHT22;9271;48.590;8.866;2023-06-04T13:58:53;39.10;21.30
18291;DHT22;9271;48.590;8.866;2023-06-04T14:01:20;39.20;21.00
18291;DHT22;9271;48.590;8.866;2023-06-04T14:03:47;38.50;21.60
18291;DHT22;9271;48.590;8.866;2023-06-04T14:06:15;38.30;21.70
18291;DHT22;9271;48.590;8.866;2023-06-04T14:08:42;38.70;21.40
18291;DHT22;9271;48.590;8.866;2023-06-04T14:11:09;38.70;21.40
18291;DHT22;9271;48.590;8.866;2023-06-04T14:13:37;38.50;22.00
18291;DHT22;9271;48.590;8.866;2023-06-04T14:16:06;38.60;21.80
18291;DHT22;9271;48.590;8.866;2023-06-04T14:18:33;38.60;21.70
18291;DHT22;9271;48.590;8.866;2023-06-04T14:21:00;38.70;21.30
18291;DHT22;9271;48.590;8.866;2023-06-04T14:23:29;38.40;21.60
18291;DHT22;9271;48.590;8.866;2023-06-04T14:25:56;38.40;21.80
18291;DHT22;9271;48.590;8.866;2023-06-04T14:28:23;38.10;21.00
18291;DHT22;9271;48.590;8.866;2023-06-04T14:30:50;38.00;21.80
18291;DHT22;9271;48.590;8.866;2023-06-04T14:33:17;37.30;21.80
18291;DHT22;9271;48.590;8.866;2023-06-04T14:35:44;35.70;22.60
18291;DHT22;9271;48.590;8.866;2023-06-04T14:38:12;35.30;23.30
18291;DHT22;9271;48.590;8.866;2023-06-04T14:40:41;35.30;23.00
18291;DHT22;9271;48.590;8.866;2023-06-04T14:43:10;36.00;23.50
18291;DHT22;9271;48.590;8.866;2023-06-04T14:45:37;36.30;22.50
18291;DHT22;9271;48.590;8.866;2023-06-04T14:48:05;36.20;23.00
18291;DHT22;9271;48.590;8.866;2023-06-04T14:50:32;36.10;23.20
18291;DHT22;9271;48.590;8.866;2023-06-04T14:52:59;35.90;23.30
18291;DHT22;9271;48.590;8.866;2023-06-04T14:55:26;35.60;23.70
18291;DHT22;9271;48.590;8.866;2023-06-04T14:57:54;35.30;23.80
18291;DHT22;9271;48.590;8.866;2023-06-04T15:00:21;35.40;23.10
18291;DHT22;9271;48.590;8.866;2023-06-04T15:02:47;35.40;23.50
18291;DHT22;9271;48.590;8.866;2023-06-04T15:05:14;35.20;23.80
18291;DHT22;9271;48.590;8.866;2023-06-04T15:07:41;34.80;23.80
18291;DHT22;9271;48.590;8.866;2023-06-04T15:10:08;34.70;23.90
18291;DHT22;9271;48.590;8.866;2023-06-04T15:12:35;34.70;24.20
18291;DHT22;9271;48.590;8.866;2023-06-04T15:15:06;34.30;23.80
18291;DHT22;9271;48.590;8.866;2023-06-04T15:17:33;34.20;24.40
18291;DHT22;9271;48.590;8.866;2023-06-04T15:20:00;34.10;23.90
18291;DHT22;9271;48.590;8.866;2023-06-04T15:22:27;33.60;24.40
18291;DHT22;9271;48.590;8.866;2023-06-04T15:24:54;34.00;25.00
18291;DHT22;9271;48.590;8.866;2023-06-04T15:27:21;33.70;24.80
18291;DHT22;9271;48.590;8.866;2023-06-04T15:29:48;33.60;24.60
18291;DHT22;9271;48.590;8.866;2023-06-04T15:32:16;33.40;24.90
18291;DHT22;9271;48.590;8.866;2023-06-04T15:34:42;33.10;25.40
18291;DHT22;9271;48.590;8.866;2023-06-04T15:37:09;32.70;25.70
18291;DHT22;9271;48.590;8.866;2023-06-04T15:39:36;32.50;25.80
18291;DHT22;9271;48.590;8.866;2023-06-04T15:42:03;32.00;26.10
18291;DHT22;9271;48.590;8.866;2023-06-04T15:44:30;31.40;25.80
18291;DHT22;9271;48.590;8.866;2023-06-04T15:46:56;31.30;26.50